sensor_id;sensor_type;location;lat;lon;timestamp;P1;durP1;ratioP1;P2;durP2;ratioP2
45254;SDS011;30989;52.078;21.014;2022-12-10T00:01:07;75.93;;;31.05;;
45254;SDS011;30989;52.078;21.014;2022-12-10T00:03:35;67.73;;;29.47;;
45254;SDS011;30989;52.078;21.014;2022-12-10T00:06:01;68.25;;;28.60;;
45254;SDS011;30989;52.078;21.014;2022-12-10T00:08:28;70.65;;;31.90;;
45254;SDS011;30989;52.078;21.014;2022-12-10T00:10:54;82.07;;;34.00;;
45254;SDS011;30989;52.078;21.014;2022-12-10T00:13:19;64.28;;;27.52;;
45254;SDS011;30989;52.078;21.014;2022-12-10T00:15:45;77.15;;;31.95;;
45254;SDS011;30989;52.078;21.014;2022-12-10T00:18:10;69.13;;;28.92;;
45254;SDS011;30989;52.078;21.014;2022-12-10T00:20:36;77.50;;;33.72;;
45254;SDS011;30989;52.078;21.014;2022-12-10T00:23:02;74.60;;;33.45;;
45254;SDS011;30989;52.078;21.014;2022-12-10T00:25:28;70.95;;;32.20;;
45254;SDS011;30989;52.078;21.014;2022-12-10T00:27:54;75.25;;;34.58;;
45254;SDS011;30989;52.078;21.014;2022-12-10T00:30:19;59.38;;;27.75;;
45254;SDS011;30989;52.078;21.014;2022-12-10T00:32:45;69.05;;;29.58;;
45254;SDS011;30989;52.078;21.014;2022-12-10T00:35:10;79.88;;;32.72;;
45254;SDS011;30989;52.078;21.014;2022-12-10T00:37:36;83.40;;;34.92;;
45254;SDS011;30989;52.078;21.014;2022-12-10T00:40:01;65.45;;;28.27;;
45254;SDS011;30989;52.078;21.014;2022-12-10T00:42:27;73.63;;;32.60;;
45254;SDS011;30989;52.078;21.014;2022-12-10T00:44:52;82.50;;;35.78;;
45254;SDS011;30989;52.078;21.014;2022-12-10T00:47:18;68.57;;;28.17;;
45254;SDS011;30989;52.078;21.014;2022-12-10T00:49:43;66.90;;;27.98;;
45254;SDS011;30989;52.078;21.014;2022-12-10T00:52:08;79.45;;;32.25;;
45254;SDS011;30989;52.078;21.014;2022-12-10T00:54:34;75.35;;;30.52;;
45254;SDS011;30989;52.078;21.014;2022-12-10T00:56:59;75.45;;;32.75;;
45254;SDS011;30989;52.078;21.014;2022-12-10T00:59:25;71.57;;;29.10;;
45254;SDS011;30989;52.078;21.014;2022-12-10T01:01:50;77.72;;;33.95;;
45254;SDS011;30989;52.078;21.014;2022-12-10T01:04:19;78.72;;;33.67;;
45254;SDS011;30989;52.078;21.014;2022-12-10T01:06:45;81.15;;;33.45;;
45254;SDS011;30989;52.078;21.014;2022-12-10T01:09:16;69.10;;;29.92;;
45254;SDS011;30989;52.078;21.014;2022-12-10T01:11:45;74.45;;;32.78;;
45254;SDS011;30989;52.078;21.014;2022-12-10T01:14:13;78.07;;;32.75;;
45254;SDS011;30989;52.078;21.014;2022-12-10T01:16:42;83.35;;;35.20;;
45254;SDS011;30989;52.078;21.014;2022-12-10T01:19:09;81.70;;;32.63;;
45254;SDS011;30989;52.078;21.014;2022-12-10T01:21:35;80.30;;;34.45;;
45254;SDS011;30989;52.078;21.014;2022-12-10T01:24:01;73.22;;;29.95;;
45254;SDS011;30989;52.078;21.014;2022-12-10T01:26:29;72.43;;;31.15;;
45254;SDS011;30989;52.078;21.014;2022-12-10T01:28:56;77.20;;;32.08;;
45254;SDS011;30989;52.078;21.014;2022-12-10T01:31:23;80.57;;;33.63;;
45254;SDS011;30989;52.078;21.014;2022-12-10T01:33:50;81.57;;;32.72;;
45254;SDS011;30989;52.078;21.014;2022-12-10T01:36:20;70.55;;;30.38;;
45254;SDS011;30989;52.078;21.014;2022-12-10T01:38:48;62.13;;;24.25;;
45254;SDS011;30989;52.078;21.014;2022-12-10T01:41:17;79.07;;;30.75;;
45254;SDS011;30989;52.078;21.014;2022-12-10T01:46:20;73.88;;;31.90;;
45254;SDS011;30989;52.078;21.014;2022-12-10T01:48:48;79.50;;;30.98;;
45254;SDS011;30989;52.078;21.014;2022-12-10T01:51:16;65.05;;;28.95;;
45254;SDS011;30989;52.078;21.014;2022-12-10T01:53:42;77.93;;;32.60;;
45254;SDS011;30989;52.078;21.014;2022-12-10T01:56:10;83.00;;;32.78;;
45254;SDS011;30989;52.078;21.014;2022-12-10T01:58:36;83.97;;;33.28;;
45254;SDS011;30989;52.078;21.014;2022-12-10T02:03:52;81.63;;;32.67;;
45254;SDS011;30989;52.078;21.014;2022-12-10T02:06:45;64.38;;;25.48;;
45254;SDS011;30989;52.078;21.014;2022-12-10T02:09:24;78.53;;;30.45;;
45254;SDS011;30989;52.078;21.014;2022-12-10T02:15:00;76.67;;;29.47;;
45254;SDS011;30989;52.078;21.014;2022-12-10T02:22:42;70.30;;;28.63;;
45254;SDS011;30989;52.078;21.014;2022-12-10T02:25:13;68.78;;;28.65;;
45254;SDS011;30989;52.078;21.014;2022-12-10T02:30:11;74.90;;;30.15;;
45254;SDS011;30989;52.078;21.014;2022-12-10T02:32:37;67.72;;;29.20;;
45254;SDS011;30989;52.078;21.014;2022-12-10T02:35:09;66.40;;;28.70;;
45254;SDS011;30989;52.078;21.014;2022-12-10T02:40:11;70.90;;;30.35;;
45254;SDS011;30989;52.078;21.014;2022-12-10T02:42:47;66.85;;;28.08;;
45254;SDS011;30989;52.078;21.014;2022-12-10T02:45:16;64.65;;;27.67;;
45254;SDS011;30989;52.078;21.014;2022-12-10T02:47:43;67.35;;;28.27;;
45254;SDS011;30989;52.078;21.014;2022-12-10T02:50:11;73.43;;;27.98;;
45254;SDS011;30989;52.078;21.014;2022-12-10T02:52:40;71.70;;;28.45;;
45254;SDS011;30989;52.078;21.014;2022-12-10T02:55:06;60.67;;;25.85;;
45254;SDS011;30989;52.078;21.014;2022-12-10T03:00:20;61.95;;;27.17;;
45254;SDS011;30989;52.078;21.014;2022-12-10T03:03:10;67.30;;;24.95;;
45254;SDS011;30989;52.078;21.014;2022-12-10T03:16:28;58.55;;;23.10;;
45254;SDS011;30989;52.078;21.014;2022-12-10T03:19:09;49.78;;;21.42;;
45254;SDS011;30989;52.078;21.014;2022-12-10T03:21:37;55.78;;;22.67;;
45254;SDS011;30989;52.078;21.014;2022-12-10T03:24:07;54.70;;;19.65;;
45254;SDS011;30989;52.078;21.014;2022-12-10T03:26:34;48.50;;;19.50;;
45254;SDS011;30989;52.078;21.014;2022-12-10T03:29:04;50.30;;;21.73;;
45254;SDS011;30989;52.078;21.014;2022-12-10T03:31:32;47.75;;;21.35;;
45254;SDS011;30989;52.078;21.014;2022-12-10T03:33:59;50.08;;;21.05;;
45254;SDS011;30989;52.078;21.014;2022-12-10T03:36:26;46.10;;;19.27;;
45254;SDS011;30989;52.078;21.014;2022-12-10T03:38:53;43.15;;;19.55;;
45254;SDS011;30989;52.078;21.014;2022-12-10T03:41:19;54.00;;;21.58;;
45254;SDS011;30989;52.078;21.014;2022-12-10T03:43:55;53.67;;;19.60;;
45254;SDS011;30989;52.078;21.014;2022-12-10T03:46:22;41.92;;;17.05;;
45254;SDS011;30989;52.078;21.014;2022-12-10T03:48:49;42.00;;;17.58;;
45254;SDS011;30989;52.078;21.014;2022-12-10T03:51:15;46.85;;;20.13;;
45254;SDS011;30989;52.078;21.014;2022-12-10T03:53:41;33.25;;;16.13;;
45254;SDS011;30989;52.078;21.014;2022-12-10T03:56:06;33.25;;;13.32;;
45254;SDS011;30989;52.078;21.014;2022-12-10T03:58:32;32.88;;;14.88;;
45254;SDS011;30989;52.078;21.014;2022-12-10T04:00:57;41.22;;;17.48;;
45254;SDS011;30989;52.078;21.014;2022-12-10T04:03:23;40.70;;;18.40;;
45254;SDS011;30989;52.078;21.014;2022-12-10T04:05:48;37.80;;;16.13;;
45254;SDS011;30989;52.078;21.014;2022-12-10T04:08:14;40.80;;;17.33;;
45254;SDS011;30989;52.078;21.014;2022-12-10T04:10:40;49.53;;;19.88;;
45254;SDS011;30989;52.078;21.014;2022-12-10T04:13:05;45.75;;;19.42;;
45254;SDS011;30989;52.078;21.014;2022-12-10T04:15:49;40.25;;;18.02;;
45254;SDS011;30989;52.078;21.014;2022-12-10T04:18:33;39.13;;;16.00;;
45254;SDS011;30989;52.078;21.014;2022-12-10T04:20:58;39.67;;;17.73;;
45254;SDS011;30989;52.078;21.014;2022-12-10T04:23:42;35.90;;;16.00;;
45254;SDS011;30989;52.078;21.014;2022-12-10T04:26:26;39.28;;;15.32;;
45254;SDS011;30989;52.078;21.014;2022-12-10T04:29:10;44.33;;;17.08;;
45254;SDS011;30989;52.078;21.014;2022-12-10T04:31:35;41.35;;;16.55;;
45254;SDS011;30989;52.078;21.014;2022-12-10T04:34:01;41.47;;;16.95;;
45254;SDS011;30989;52.078;21.014;2022-12-10T04:36:26;42.65;;;17.92;;
45254;SDS011;30989;52.078;21.014;2022-12-10T04:38:52;37.47;;;16.17;;
45254;SDS011;30989;52.078;21.014;2022-12-10T04:41:17;40.80;;;15.77;;
45254;SDS011;30989;52.078;21.014;2022-12-10T04:43:43;43.05;;;16.58;;
45254;SDS011;30989;52.078;21.014;2022-12-10T04:46:09;35.33;;;14.80;;
45254;SDS011;30989;52.078;21.014;2022-12-10T04:48:34;41.88;;;17.70;;
45254;SDS011;30989;52.078;21.014;2022-12-10T04:51:00;41.83;;;18.73;;
45254;SDS011;30989;52.078;21.014;2022-12-10T04:53:25;42.95;;;18.27;;
45254;SDS011;30989;52.078;21.014;2022-12-10T04:55:51;41.22;;;16.17;;
45254;SDS011;30989;52.078;21.014;2022-12-10T04:58:17;39.45;;;15.90;;
45254;SDS011;30989;52.078;21.014;2022-12-10T05:00:42;40.13;;;15.18;;
45254;SDS011;30989;52.078;21.014;2022-12-10T05:03:08;39.70;;;15.15;;
45254;SDS011;30989;52.078;21.014;2022-12-10T05:05:34;41.85;;;16.42;;
45254;SDS011;30989;52.078;21.014;2022-12-10T05:08:00;45.67;;;17.65;;
45254;SDS011;30989;52.078;21.014;2022-12-10T05:10:25;38.00;;;16.25;;
45254;SDS011;30989;52.078;21.014;2022-12-10T05:12:51;50.40;;;20.92;;
45254;SDS011;30989;52.078;21.014;2022-12-10T05:15:17;47.70;;;19.15;;
45254;SDS011;30989;52.078;21.014;2022-12-10T05:17:43;49.60;;;19.60;;
45254;SDS011;30989;52.078;21.014;2022-12-10T05:20:09;46.13;;;17.50;;
45254;SDS011;30989;52.078;21.014;2022-12-10T05:22:34;43.70;;;15.95;;
45254;SDS011;30989;52.078;21.014;2022-12-10T05:25:18;36.28;;;14.90;;
45254;SDS011;30989;52.078;21.014;2022-12-10T05:27:44;35.90;;;15.07;;
45254;SDS011;30989;52.078;21.014;2022-12-10T05:30:10;40.50;;;15.82;;
45254;SDS011;30989;52.078;21.014;2022-12-10T05:32:35;30.45;;;14.10;;
45254;SDS011;30989;52.078;21.014;2022-12-10T05:35:01;40.38;;;16.08;;
45254;SDS011;30989;52.078;21.014;2022-12-10T05:37:27;49.75;;;18.88;;
45254;SDS011;30989;52.078;21.014;2022-12-10T05:39:53;31.80;;;14.30;;
45254;SDS011;30989;52.078;21.014;2022-12-10T05:42:19;41.72;;;16.67;;
45254;SDS011;30989;52.078;21.014;2022-12-10T05:44:44;35.60;;;13.82;;
45254;SDS011;30989;52.078;21.014;2022-12-10T05:47:10;37.38;;;15.25;;
45254;SDS011;30989;52.078;21.014;2022-12-10T05:49:36;42.58;;;16.20;;
45254;SDS011;30989;52.078;21.014;2022-12-10T05:52:01;41.58;;;17.50;;
45254;SDS011;30989;52.078;21.014;2022-12-10T05:54:27;32.78;;;12.88;;
45254;SDS011;30989;52.078;21.014;2022-12-10T05:56:52;41.20;;;16.08;;
45254;SDS011;30989;52.078;21.014;2022-12-10T05:59:19;38.40;;;14.10;;
45254;SDS011;30989;52.078;21.014;2022-12-10T06:01:45;39.53;;;15.90;;
45254;SDS011;30989;52.078;21.014;2022-12-10T06:04:10;33.00;;;13.10;;
45254;SDS011;30989;52.078;21.014;2022-12-10T06:06:37;44.30;;;16.27;;
45254;SDS011;30989;52.078;21.014;2022-12-10T06:09:04;40.83;;;16.58;;
45254;SDS011;30989;52.078;21.014;2022-12-10T06:11:31;40.22;;;15.23;;
45254;SDS011;30989;52.078;21.014;2022-12-10T06:13:57;43.20;;;16.15;;
45254;SDS011;30989;52.078;21.014;2022-12-10T06:16:24;42.78;;;14.98;;
45254;SDS011;30989;52.078;21.014;2022-12-10T06:18:51;38.60;;;11.60;;
45254;SDS011;30989;52.078;21.014;2022-12-10T06:21:17;35.78;;;14.45;;
45254;SDS011;30989;52.078;21.014;2022-12-10T06:23:44;41.25;;;15.63;;
45254;SDS011;30989;52.078;21.014;2022-12-10T06:26:12;37.03;;;13.90;;
45254;SDS011;30989;52.078;21.014;2022-12-10T06:28:43;40.45;;;14.93;;
45254;SDS011;30989;52.078;21.014;2022-12-10T06:31:10;50.33;;;17.48;;
45254;SDS011;30989;52.078;21.014;2022-12-10T06:33:36;38.83;;;16.42;;
45254;SDS011;30989;52.078;21.014;2022-12-10T06:36:05;38.55;;;14.60;;
45254;SDS011;30989;52.078;21.014;2022-12-10T06:38:33;42.08;;;16.98;;
45254;SDS011;30989;52.078;21.014;2022-12-10T06:40:59;45.85;;;17.98;;
45254;SDS011;30989;52.078;21.014;2022-12-10T06:43:29;43.05;;;17.85;;
45254;SDS011;30989;52.078;21.014;2022-12-10T06:45:55;36.65;;;14.52;;
45254;SDS011;30989;52.078;21.014;2022-12-10T06:48:21;39.00;;;15.10;;
45254;SDS011;30989;52.078;21.014;2022-12-10T06:50:46;28.13;;;11.98;;
45254;SDS011;30989;52.078;21.014;2022-12-10T06:53:11;32.28;;;11.55;;
45254;SDS011;30989;52.078;21.014;2022-12-10T06:55:37;33.13;;;11.85;;
45254;SDS011;30989;52.078;21.014;2022-12-10T06:58:05;34.45;;;12.32;;
45254;SDS011;30989;52.078;21.014;2022-12-10T07:00:31;28.70;;;12.18;;
45254;SDS011;30989;52.078;21.014;2022-12-10T07:02:56;37.00;;;14.30;;
45254;SDS011;30989;52.078;21.014;2022-12-10T07:05:22;31.48;;;12.07;;
45254;SDS011;30989;52.078;21.014;2022-12-10T07:07:50;36.55;;;14.18;;
45254;SDS011;30989;52.078;21.014;2022-12-10T07:10:16;38.22;;;13.82;;
45254;SDS011;30989;52.078;21.014;2022-12-10T07:12:41;35.65;;;14.52;;
45254;SDS011;30989;52.078;21.014;2022-12-10T07:15:07;35.85;;;13.75;;
45254;SDS011;30989;52.078;21.014;2022-12-10T07:17:33;38.55;;;13.95;;
45254;SDS011;30989;52.078;21.014;2022-12-10T07:19:58;38.22;;;14.85;;
45254;SDS011;30989;52.078;21.014;2022-12-10T07:22:24;66.85;;;22.90;;
45254;SDS011;30989;52.078;21.014;2022-12-10T07:24:49;39.20;;;14.25;;
45254;SDS011;30989;52.078;21.014;2022-12-10T07:27:15;37.55;;;13.93;;
45254;SDS011;30989;52.078;21.014;2022-12-10T07:29:41;34.50;;;14.45;;
45254;SDS011;30989;52.078;21.014;2022-12-10T07:32:06;40.58;;;14.80;;
45254;SDS011;30989;52.078;21.014;2022-12-10T07:34:31;40.25;;;14.10;;
45254;SDS011;30989;52.078;21.014;2022-12-10T07:36:57;38.95;;;14.45;;
45254;SDS011;30989;52.078;21.014;2022-12-10T07:39:25;48.15;;;16.48;;
45254;SDS011;30989;52.078;21.014;2022-12-10T07:41:52;30.55;;;12.93;;
45254;SDS011;30989;52.078;21.014;2022-12-10T07:44:18;41.60;;;14.93;;
45254;SDS011;30989;52.078;21.014;2022-12-10T07:46:46;38.83;;;14.95;;
45254;SDS011;30989;52.078;21.014;2022-12-10T07:49:13;35.28;;;13.70;;
45254;SDS011;30989;52.078;21.014;2022-12-10T07:51:39;43.33;;;14.73;;
45254;SDS011;30989;52.078;21.014;2022-12-10T07:54:04;45.42;;;15.73;;
45254;SDS011;30989;52.078;21.014;2022-12-10T07:56:30;39.60;;;15.00;;
45254;SDS011;30989;52.078;21.014;2022-12-10T07:58:56;46.70;;;16.17;;
45254;SDS011;30989;52.078;21.014;2022-12-10T08:01:25;46.50;;;16.23;;
45254;SDS011;30989;52.078;21.014;2022-12-10T08:03:52;51.15;;;17.30;;
45254;SDS011;30989;52.078;21.014;2022-12-10T08:06:21;46.20;;;16.70;;
45254;SDS011;30989;52.078;21.014;2022-12-10T08:08:47;49.42;;;17.77;;
45254;SDS011;30989;52.078;21.014;2022-12-10T08:11:13;46.72;;;16.27;;
45254;SDS011;30989;52.078;21.014;2022-12-10T08:13:40;41.15;;;13.90;;
45254;SDS011;30989;52.078;21.014;2022-12-10T08:16:15;45.60;;;15.20;;
45254;SDS011;30989;52.078;21.014;2022-12-10T08:18:43;47.80;;;14.60;;
45254;SDS011;30989;52.078;21.014;2022-12-10T08:21:10;49.17;;;15.65;;
45254;SDS011;30989;52.078;21.014;2022-12-10T08:23:38;43.35;;;16.65;;
45254;SDS011;30989;52.078;21.014;2022-12-10T08:26:04;40.58;;;15.05;;
45254;SDS011;30989;52.078;21.014;2022-12-10T08:28:31;34.92;;;13.02;;
45254;SDS011;30989;52.078;21.014;2022-12-10T08:30:58;42.53;;;15.65;;
45254;SDS011;30989;52.078;21.014;2022-12-10T08:33:23;50.60;;;17.30;;
45254;SDS011;30989;52.078;21.014;2022-12-10T08:35:49;46.38;;;16.02;;
45254;SDS011;30989;52.078;21.014;2022-12-10T08:38:14;49.72;;;17.13;;
45254;SDS011;30989;52.078;21.014;2022-12-10T08:40:41;45.53;;;16.73;;
45254;SDS011;30989;52.078;21.014;2022-12-10T08:43:06;43.90;;;14.75;;
45254;SDS011;30989;52.078;21.014;2022-12-10T08:45:32;41.10;;;14.27;;
45254;SDS011;30989;52.078;21.014;2022-12-10T08:47:59;37.33;;;13.15;;
45254;SDS011;30989;52.078;21.014;2022-12-10T08:50:26;48.17;;;16.88;;
45254;SDS011;30989;52.078;21.014;2022-12-10T08:52:51;46.22;;;15.23;;
45254;SDS011;30989;52.078;21.014;2022-12-10T08:55:17;38.05;;;14.15;;
45254;SDS011;30989;52.078;21.014;2022-12-10T08:57:42;40.78;;;14.43;;
45254;SDS011;30989;52.078;21.014;2022-12-10T09:00:08;37.63;;;14.32;;
45254;SDS011;30989;52.078;21.014;2022-12-10T09:02:34;40.67;;;13.57;;
45254;SDS011;30989;52.078;21.014;2022-12-10T09:05:00;50.22;;;17.00;;
45254;SDS011;30989;52.078;21.014;2022-12-10T09:07:26;38.28;;;13.32;;
45254;SDS011;30989;52.078;21.014;2022-12-10T09:09:52;34.90;;;12.63;;
45254;SDS011;30989;52.078;21.014;2022-12-10T09:12:17;45.22;;;17.00;;
45254;SDS011;30989;52.078;21.014;2022-12-10T09:14:43;35.05;;;13.32;;
45254;SDS011;30989;52.078;21.014;2022-12-10T09:17:08;30.77;;;11.32;;
45254;SDS011;30989;52.078;21.014;2022-12-10T09:19:33;48.45;;;14.38;;
45254;SDS011;30989;52.078;21.014;2022-12-10T09:21:59;42.65;;;15.50;;
45254;SDS011;30989;52.078;21.014;2022-12-10T09:24:26;42.60;;;14.07;;
45254;SDS011;30989;52.078;21.014;2022-12-10T09:26:52;38.42;;;12.77;;
45254;SDS011;30989;52.078;21.014;2022-12-10T09:29:18;43.33;;;14.32;;
45254;SDS011;30989;52.078;21.014;2022-12-10T09:31:44;42.00;;;13.32;;
45254;SDS011;30989;52.078;21.014;2022-12-10T09:34:10;37.20;;;14.88;;
45254;SDS011;30989;52.078;21.014;2022-12-10T09:36:35;45.00;;;14.38;;
45254;SDS011;30989;52.078;21.014;2022-12-10T09:39:01;49.83;;;16.17;;
45254;SDS011;30989;52.078;21.014;2022-12-10T09:51:35;38.65;;;13.85;;
45254;SDS011;30989;52.078;21.014;2022-12-10T09:57:01;45.60;;;14.98;;
45254;SDS011;30989;52.078;21.014;2022-12-10T09:59:35;45.50;;;16.13;;
45254;SDS011;30989;52.078;21.014;2022-12-10T10:04:46;40.08;;;14.05;;
45254;SDS011;30989;52.078;21.014;2022-12-10T10:07:19;45.38;;;14.45;;
45254;SDS011;30989;52.078;21.014;2022-12-10T10:09:49;43.65;;;15.65;;
45254;SDS011;30989;52.078;21.014;2022-12-10T10:12:16;35.33;;;12.02;;
45254;SDS011;30989;52.078;21.014;2022-12-10T10:14:42;46.45;;;15.80;;
45254;SDS011;30989;52.078;21.014;2022-12-10T10:19:56;34.70;;;12.27;;
45254;SDS011;30989;52.078;21.014;2022-12-10T10:22:22;41.13;;;14.48;;
45254;SDS011;30989;52.078;21.014;2022-12-10T10:24:48;41.60;;;13.77;;
45254;SDS011;30989;52.078;21.014;2022-12-10T10:29:41;44.97;;;15.52;;
45254;SDS011;30989;52.078;21.014;2022-12-10T10:32:18;38.80;;;12.70;;
45254;SDS011;30989;52.078;21.014;2022-12-10T10:34:45;48.83;;;15.77;;
45254;SDS011;30989;52.078;21.014;2022-12-10T10:37:16;40.00;;;13.95;;
45254;SDS011;30989;52.078;21.014;2022-12-10T10:39:46;40.90;;;14.15;;
45254;SDS011;30989;52.078;21.014;2022-12-10T10:42:16;35.55;;;12.30;;
45254;SDS011;30989;52.078;21.014;2022-12-10T10:44:52;42.90;;;15.57;;
45254;SDS011;30989;52.078;21.014;2022-12-10T10:47:27;33.75;;;12.98;;
45254;SDS011;30989;52.078;21.014;2022-12-10T10:49:54;36.70;;;13.82;;
45254;SDS011;30989;52.078;21.014;2022-12-10T10:52:19;44.90;;;15.15;;
45254;SDS011;30989;52.078;21.014;2022-12-10T10:54:45;33.75;;;12.55;;
45254;SDS011;30989;52.078;21.014;2022-12-10T11:02:53;34.70;;;13.43;;
45254;SDS011;30989;52.078;21.014;2022-12-10T11:05:25;36.53;;;12.48;;
45254;SDS011;30989;52.078;21.014;2022-12-10T11:08:04;37.42;;;12.90;;
45254;SDS011;30989;52.078;21.014;2022-12-10T11:10:37;39.35;;;14.38;;
45254;SDS011;30989;52.078;21.014;2022-12-10T11:13:23;37.10;;;14.02;;
45254;SDS011;30989;52.078;21.014;2022-12-10T11:20:58;33.33;;;11.90;;
45254;SDS011;30989;52.078;21.014;2022-12-10T11:23:31;40.00;;;15.00;;
45254;SDS011;30989;52.078;21.014;2022-12-10T11:29:34;35.00;;;13.73;;
45254;SDS011;30989;52.078;21.014;2022-12-10T11:35:01;33.88;;;12.30;;
45254;SDS011;30989;52.078;21.014;2022-12-10T11:40:06;34.88;;;11.57;;
45254;SDS011;30989;52.078;21.014;2022-12-10T11:51:00;36.92;;;13.68;;
45254;SDS011;30989;52.078;21.014;2022-12-10T12:14:57;44.50;;;16.40;;
45254;SDS011;30989;52.078;21.014;2022-12-10T12:17:28;42.63;;;14.82;;
45254;SDS011;30989;52.078;21.014;2022-12-10T12:20:03;38.55;;;13.32;;
45254;SDS011;30989;52.078;21.014;2022-12-10T12:22:42;32.50;;;13.23;;
45254;SDS011;30989;52.078;21.014;2022-12-10T12:25:18;34.55;;;13.70;;
45254;SDS011;30989;52.078;21.014;2022-12-10T12:30:41;32.88;;;12.32;;
45254;SDS011;30989;52.078;21.014;2022-12-10T12:36:00;33.45;;;10.60;;
45254;SDS011;30989;52.078;21.014;2022-12-10T12:38:42;41.17;;;13.77;;
45254;SDS011;30989;52.078;21.014;2022-12-10T12:41:30;34.10;;;11.95;;
45254;SDS011;30989;52.078;21.014;2022-12-10T12:44:04;34.05;;;12.73;;
45254;SDS011;30989;52.078;21.014;2022-12-10T12:46:47;29.50;;;10.15;;
45254;SDS011;30989;52.078;21.014;2022-12-10T12:49:24;31.80;;;13.10;;
45254;SDS011;30989;52.078;21.014;2022-12-10T12:54:31;37.97;;;15.57;;
45254;SDS011;30989;52.078;21.014;2022-12-10T12:57:03;37.03;;;14.73;;
45254;SDS011;30989;52.078;21.014;2022-12-10T13:05:34;39.83;;;13.65;;
45254;SDS011;30989;52.078;21.014;2022-12-10T13:08:22;42.28;;;15.13;;
45254;SDS011;30989;52.078;21.014;2022-12-10T13:13:40;37.05;;;13.68;;
45254;SDS011;30989;52.078;21.014;2022-12-10T13:29:27;40.35;;;15.10;;
45254;SDS011;30989;52.078;21.014;2022-12-10T13:32:03;38.60;;;15.20;;
45254;SDS011;30989;52.078;21.014;2022-12-10T13:34:30;44.50;;;14.25;;
45254;SDS011;30989;52.078;21.014;2022-12-10T13:37:26;46.97;;;15.88;;
45254;SDS011;30989;52.078;21.014;2022-12-10T13:40:02;41.25;;;15.07;;
45254;SDS011;30989;52.078;21.014;2022-12-10T13:42:40;56.67;;;17.55;;
45254;SDS011;30989;52.078;21.014;2022-12-10T13:45:29;56.42;;;19.65;;
45254;SDS011;30989;52.078;21.014;2022-12-10T13:50:48;64.80;;;18.25;;
45254;SDS011;30989;52.078;21.014;2022-12-10T13:56:17;37.30;;;13.05;;
45254;SDS011;30989;52.078;21.014;2022-12-10T13:59:17;47.42;;;16.35;;
45254;SDS011;30989;52.078;21.014;2022-12-10T14:01:59;47.60;;;17.05;;
45254;SDS011;30989;52.078;21.014;2022-12-10T14:04:50;38.33;;;13.70;;
45254;SDS011;30989;52.078;21.014;2022-12-10T14:07:38;43.42;;;14.70;;
45254;SDS011;30989;52.078;21.014;2022-12-10T14:10:11;41.85;;;15.00;;
45254;SDS011;30989;52.078;21.014;2022-12-10T14:12:40;45.67;;;13.88;;
45254;SDS011;30989;52.078;21.014;2022-12-10T14:15:14;46.35;;;17.20;;
45254;SDS011;30989;52.078;21.014;2022-12-10T14:17:43;39.47;;;13.55;;
45254;SDS011;30989;52.078;21.014;2022-12-10T14:20:17;36.75;;;13.93;;
45254;SDS011;30989;52.078;21.014;2022-12-10T14:22:45;50.15;;;16.80;;
45254;SDS011;30989;52.078;21.014;2022-12-10T14:25:14;43.47;;;15.65;;
45254;SDS011;30989;52.078;21.014;2022-12-10T14:27:43;46.42;;;16.40;;
45254;SDS011;30989;52.078;21.014;2022-12-10T14:32:50;42.15;;;16.02;;
45254;SDS011;30989;52.078;21.014;2022-12-10T14:35:19;41.50;;;14.90;;
45254;SDS011;30989;52.078;21.014;2022-12-10T14:37:48;38.42;;;14.65;;
45254;SDS011;30989;52.078;21.014;2022-12-10T14:40:19;45.20;;;16.88;;
45254;SDS011;30989;52.078;21.014;2022-12-10T14:42:48;38.65;;;13.60;;
45254;SDS011;30989;52.078;21.014;2022-12-10T14:45:15;48.30;;;17.58;;
45254;SDS011;30989;52.078;21.014;2022-12-10T14:47:41;42.58;;;16.27;;
45254;SDS011;30989;52.078;21.014;2022-12-10T14:50:10;47.35;;;17.13;;
45254;SDS011;30989;52.078;21.014;2022-12-10T14:52:39;55.28;;;21.10;;
45254;SDS011;30989;52.078;21.014;2022-12-10T14:55:11;69.22;;;24.42;;
45254;SDS011;30989;52.078;21.014;2022-12-10T14:57:40;50.47;;;18.77;;
45254;SDS011;30989;52.078;21.014;2022-12-10T15:00:15;54.70;;;18.42;;
45254;SDS011;30989;52.078;21.014;2022-12-10T15:02:53;52.65;;;19.90;;
45254;SDS011;30989;52.078;21.014;2022-12-10T15:05:22;49.72;;;18.27;;
45254;SDS011;30989;52.078;21.014;2022-12-10T15:07:53;51.03;;;17.27;;
45254;SDS011;30989;52.078;21.014;2022-12-10T15:10:37;57.33;;;17.90;;
45254;SDS011;30989;52.078;21.014;2022-12-10T15:13:05;41.20;;;16.13;;
45254;SDS011;30989;52.078;21.014;2022-12-10T15:15:38;48.33;;;18.27;;
45254;SDS011;30989;52.078;21.014;2022-12-10T15:25:58;38.67;;;15.60;;
45254;SDS011;30989;52.078;21.014;2022-12-10T15:28:30;39.15;;;14.52;;
45254;SDS011;30989;52.078;21.014;2022-12-10T15:31:08;52.83;;;19.70;;
45254;SDS011;30989;52.078;21.014;2022-12-10T15:33:52;40.08;;;15.73;;
45254;SDS011;30989;52.078;21.014;2022-12-10T15:39:23;45.90;;;16.83;;
45254;SDS011;30989;52.078;21.014;2022-12-10T15:41:52;42.33;;;17.15;;
45254;SDS011;30989;52.078;21.014;2022-12-10T15:44:24;39.25;;;18.05;;
45254;SDS011;30989;52.078;21.014;2022-12-10T15:49:49;41.65;;;16.27;;
45254;SDS011;30989;52.078;21.014;2022-12-10T15:52:22;42.90;;;17.70;;
45254;SDS011;30989;52.078;21.014;2022-12-10T15:59:54;39.03;;;16.42;;
45254;SDS011;30989;52.078;21.014;2022-12-10T16:04:59;42.10;;;15.50;;
45254;SDS011;30989;52.078;21.014;2022-12-10T16:07:25;36.42;;;15.68;;
45254;SDS011;30989;52.078;21.014;2022-12-10T16:09:50;44.75;;;18.00;;
45254;SDS011;30989;52.078;21.014;2022-12-10T16:12:16;41.35;;;15.95;;
45254;SDS011;30989;52.078;21.014;2022-12-10T16:15:00;37.17;;;15.25;;
45254;SDS011;30989;52.078;21.014;2022-12-10T16:17:26;33.92;;;14.68;;
45254;SDS011;30989;52.078;21.014;2022-12-10T16:19:59;38.45;;;16.20;;
45254;SDS011;30989;52.078;21.014;2022-12-10T16:22:33;43.85;;;16.17;;
45254;SDS011;30989;52.078;21.014;2022-12-10T16:24:59;35.35;;;15.60;;
45254;SDS011;30989;52.078;21.014;2022-12-10T16:27:24;37.42;;;16.25;;
45254;SDS011;30989;52.078;21.014;2022-12-10T16:29:51;42.53;;;18.45;;
45254;SDS011;30989;52.078;21.014;2022-12-10T16:32:17;28.98;;;12.55;;
45254;SDS011;30989;52.078;21.014;2022-12-10T16:34:42;45.75;;;18.58;;
45254;SDS011;30989;52.078;21.014;2022-12-10T16:37:08;34.10;;;15.30;;
45254;SDS011;30989;52.078;21.014;2022-12-10T16:39:34;41.60;;;17.83;;
45254;SDS011;30989;52.078;21.014;2022-12-10T16:42:00;34.35;;;15.98;;
45254;SDS011;30989;52.078;21.014;2022-12-10T16:44:26;35.35;;;15.40;;
45254;SDS011;30989;52.078;21.014;2022-12-10T16:46:51;33.78;;;14.60;;
45254;SDS011;30989;52.078;21.014;2022-12-10T16:49:16;34.42;;;15.48;;
45254;SDS011;30989;52.078;21.014;2022-12-10T16:51:42;37.92;;;17.63;;
45254;SDS011;30989;52.078;21.014;2022-12-10T16:54:11;28.95;;;12.70;;
45254;SDS011;30989;52.078;21.014;2022-12-10T16:56:41;33.13;;;16.08;;
45254;SDS011;30989;52.078;21.014;2022-12-10T16:59:07;36.83;;;17.08;;
45254;SDS011;30989;52.078;21.014;2022-12-10T17:01:32;39.95;;;18.15;;